sensor_id;sensor_type;location;lat;lon;timestamp;temperature;humidity
71994;DHT22;59861;50.268;8.648;2023-06-10T00:01:51;20.40;69.70
71994;DHT22;59861;50.268;8.648;2023-06-10T00:04:20;20.40;69.70
71994;DHT22;59861;50.268;8.648;2023-06-10T00:06:47;20.40;69.70
71994;DHT22;59861;50.268;8.648;2023-06-10T00:09:15;20.40;70.10
71994;DHT22;59861;50.268;8.648;2023-06-10T00:11:42;20.40;69.80
71994;DHT22;59861;50.268;8.648;2023-06-10T00:14:09;20.40;69.70
71994;DHT22;59861;50.268;8.648;2023-06-10T00:16:36;20.40;69.60
71994;DHT22;59861;50.268;8.648;2023-06-10T00:19:04;20.40;69.60
71994;DHT22;59861;50.268;8.648;2023-06-10T00:21:32;20.40;69.60
71994;DHT22;59861;50.268;8.648;2023-06-10T00:24:04;20.40;69.70
71994;DHT22;59861;50.268;8.648;2023-06-10T00:26:31;20.40;69.80
71994;DHT22;59861;50.268;8.648;2023-06-10T00:28:59;20.40;69.70
71994;DHT22;59861;50.268;8.648;2023-06-10T00:31:25;20.40;69.60
71994;DHT22;59861;50.268;8.648;2023-06-10T00:33:52;20.40;69.60
71994;DHT22;59861;50.268;8.648;2023-06-10T00:36:19;20.40;69.60
71994;DHT22;59861;50.268;8.648;2023-06-10T00:38:46;20.40;69.60
71994;DHT22;59861;50.268;8.648;2023-06-10T00:41:13;20.40;69.60
71994;DHT22;59861;50.268;8.648;2023-06-10T00:43:40;20.40;69.60
71994;DHT22;59861;50.268;8.648;2023-06-10T00:46:07;20.40;69.60
71994;DHT22;59861;50.268;8.648;2023-06-10T00:48:34;20.40;69.50
71994;DHT22;59861;50.268;8.648;2023-06-10T00:51:01;20.40;69.50
71994;DHT22;59861;50.268;8.648;2023-06-10T00:53:28;20.40;69.40
71994;DHT22;59861;50.268;8.648;2023-06-10T00:55:54;20.40;69.30
71994;DHT22;59861;50.268;8.648;2023-06-10T00:58:22;20.40;69.40
71994;DHT22;59861;50.268;8.648;2023-06-10T01:00:49;20.40;69.40
71994;DHT22;59861;50.268;8.648;2023-06-10T01:03:17;20.40;69.50
71994;DHT22;59861;50.268;8.648;2023-06-10T01:05:44;20.40;70.30
71994;DHT22;59861;50.268;8.648;2023-06-10T01:08:35;20.40;69.30
71994;DHT22;59861;50.268;8.648;2023-06-10T01:10:59;20.40;69.20
71994;DHT22;59861;50.268;8.648;2023-06-10T01:13:26;20.40;69.20
71994;DHT22;59861;50.268;8.648;2023-06-10T01:15:55;20.40;69.20
71994;DHT22;59861;50.268;8.648;2023-06-10T01:18:22;20.50;69.20
71994;DHT22;59861;50.268;8.648;2023-06-10T01:20:49;20.50;69.20
71994;DHT22;59861;50.268;8.648;2023-06-10T01:23:18;20.40;69.00
71994;DHT22;59861;50.268;8.648;2023-06-10T01:25:51;20.50;69.00
71994;DHT22;59861;50.268;8.648;2023-06-10T01:28:18;20.40;69.00
71994;DHT22;59861;50.268;8.648;2023-06-10T01:30:50;20.40;68.90
71994;DHT22;59861;50.268;8.648;2023-06-10T01:33:17;20.50;68.90
71994;DHT22;59861;50.268;8.648;2023-06-10T01:35:44;20.40;69.00
71994;DHT22;59861;50.268;8.648;2023-06-10T01:38:11;20.40;68.90
71994;DHT22;59861;50.268;8.648;2023-06-10T01:40:39;20.40;68.90
71994;DHT22;59861;50.268;8.648;2023-06-10T01:43:06;20.40;68.70
71994;DHT22;59861;50.268;8.648;2023-06-10T01:45:32;20.40;68.70
71994;DHT22;59861;50.268;8.648;2023-06-10T01:47:59;20.40;68.80
71994;DHT22;59861;50.268;8.648;2023-06-10T01:50:26;20.50;68.70
71994;DHT22;59861;50.268;8.648;2023-06-10T01:52:53;20.50;68.80
71994;DHT22;59861;50.268;8.648;2023-06-10T01:55:20;20.40;68.70
71994;DHT22;59861;50.268;8.648;2023-06-10T01:57:47;20.40;68.80
71994;DHT22;59861;50.268;8.648;2023-06-10T02:00:14;20.40;68.60
71994;DHT22;59861;50.268;8.648;2023-06-10T02:02:41;20.40;68.60
71994;DHT22;59861;50.268;8.648;2023-06-10T02:05:08;20.40;68.60
71994;DHT22;59861;50.268;8.648;2023-06-10T02:07:35;20.40;68.50
71994;DHT22;59861;50.268;8.648;2023-06-10T02:10:01;20.50;68.70
71994;DHT22;59861;50.268;8.648;2023-06-10T02:12:28;20.40;68.50
71994;DHT22;59861;50.268;8.648;2023-06-10T02:14:55;20.40;68.50
71994;DHT22;59861;50.268;8.648;2023-06-10T02:17:22;20.40;68.50
71994;DHT22;59861;50.268;8.648;2023-06-10T02:19:49;20.40;68.50
71994;DHT22;59861;50.268;8.648;2023-06-10T02:22:21;20.40;69.40
71994;DHT22;59861;50.268;8.648;2023-06-10T02:24:46;20.40;68.40
71994;DHT22;59861;50.268;8.648;2023-06-10T02:27:12;20.40;68.90
71994;DHT22;59861;50.268;8.648;2023-06-10T02:29:39;20.40;68.40
71994;DHT22;59861;50.268;8.648;2023-06-10T02:32:07;20.40;68.30
71994;DHT22;59861;50.268;8.648;2023-06-10T02:34:34;20.40;68.30
71994;DHT22;59861;50.268;8.648;2023-06-10T02:37:02;20.40;68.40
71994;DHT22;59861;50.268;8.648;2023-06-10T02:39:29;20.40;68.40
71994;DHT22;59861;50.268;8.648;2023-06-10T02:41:56;20.40;68.20
71994;DHT22;59861;50.268;8.648;2023-06-10T02:44:23;20.40;68.30
71994;DHT22;59861;50.268;8.648;2023-06-10T02:46:49;20.40;68.30
71994;DHT22;59861;50.268;8.648;2023-06-10T02:49:16;20.40;68.20
71994;DHT22;59861;50.268;8.648;2023-06-10T02:51:44;20.40;68.20
71994;DHT22;59861;50.268;8.648;2023-06-10T02:54:10;20.40;68.30
71994;DHT22;59861;50.268;8.648;2023-06-10T02:56:37;20.40;68.20
71994;DHT22;59861;50.268;8.648;2023-06-10T02:59:06;20.40;68.10
71994;DHT22;59861;50.268;8.648;2023-06-10T03:01:34;20.40;68.30
71994;DHT22;59861;50.268;8.648;2023-06-10T03:04:05;20.40;68.10
71994;DHT22;59861;50.268;8.648;2023-06-10T03:06:32;20.40;68.10
71994;DHT22;59861;50.268;8.648;2023-06-10T03:09:00;20.40;68.10
71994;DHT22;59861;50.268;8.648;2023-06-10T03:11:27;20.40;68.10
71994;DHT22;59861;50.268;8.648;2023-06-10T03:13:53;20.40;68.00
71994;DHT22;59861;50.268;8.648;2023-06-10T03:16:21;20.40;68.00
71994;DHT22;59861;50.268;8.648;2023-06-10T03:18:48;20.40;68.00
71994;DHT22;59861;50.268;8.648;2023-06-10T03:21:15;20.40;68.00
71994;DHT22;59861;50.268;8.648;2023-06-10T03:23:42;20.40;68.00
71994;DHT22;59861;50.268;8.648;2023-06-10T03:26:10;20.40;68.00
71994;DHT22;59861;50.268;8.648;2023-06-10T03:28:38;20.40;68.00
71994;DHT22;59861;50.268;8.648;2023-06-10T03:31:05;20.40;68.00
71994;DHT22;59861;50.268;8.648;2023-06-10T03:33:32;20.40;68.80
71994;DHT22;59861;50.268;8.648;2023-06-10T03:35:58;20.40;68.00
71994;DHT22;59861;50.268;8.648;2023-06-10T03:38:25;20.40;67.90
71994;DHT22;59861;50.268;8.648;2023-06-10T03:40:52;20.40;67.90
71994;DHT22;59861;50.268;8.648;2023-06-10T03:43:19;20.40;67.90
71994;DHT22;59861;50.268;8.648;2023-06-10T03:45:46;20.40;67.80
71994;DHT22;59861;50.268;8.648;2023-06-10T03:48:14;20.40;67.90
71994;DHT22;59861;50.268;8.648;2023-06-10T03:50:40;20.40;68.00
71994;DHT22;59861;50.268;8.648;2023-06-10T03:53:07;20.40;67.80
71994;DHT22;59861;50.268;8.648;2023-06-10T03:55:34;20.40;67.90
71994;DHT22;59861;50.268;8.648;2023-06-10T03:58:02;20.40;67.80
71994;DHT22;59861;50.268;8.648;2023-06-10T04:00:28;20.40;67.70
71994;DHT22;59861;50.268;8.648;2023-06-10T04:02:55;20.40;67.70
71994;DHT22;59861;50.268;8.648;2023-06-10T04:05:23;20.40;67.80
71994;DHT22;59861;50.268;8.648;2023-06-10T04:07:50;20.40;68.10
71994;DHT22;59861;50.268;8.648;2023-06-10T04:10:17;20.40;67.70
71994;DHT22;59861;50.268;8.648;2023-06-10T04:12:44;20.40;67.70
71994;DHT22;59861;50.268;8.648;2023-06-10T04:15:11;20.40;67.70
71994;DHT22;59861;50.268;8.648;2023-06-10T04:17:39;20.40;67.70
71994;DHT22;59861;50.268;8.648;2023-06-10T04:20:06;20.40;67.70
71994;DHT22;59861;50.268;8.648;2023-06-10T04:22:33;20.40;67.70
71994;DHT22;59861;50.268;8.648;2023-06-10T04:25:00;20.40;67.70
71994;DHT22;59861;50.268;8.648;2023-06-10T04:27:27;20.40;67.70
71994;DHT22;59861;50.268;8.648;2023-06-10T04:29:54;20.40;67.70
71994;DHT22;59861;50.268;8.648;2023-06-10T04:32:21;20.40;67.60
71994;DHT22;59861;50.268;8.648;2023-06-10T04:34:48;20.40;67.60
71994;DHT22;59861;50.268;8.648;2023-06-10T04:37:15;20.40;67.60
71994;DHT22;59861;50.268;8.648;2023-06-10T04:39:42;20.40;68.50
71994;DHT22;59861;50.268;8.648;2023-06-10T04:42:09;20.40;67.60
71994;DHT22;59861;50.268;8.648;2023-06-10T04:44:36;20.40;67.60
71994;DHT22;59861;50.268;8.648;2023-06-10T04:47:03;20.40;67.50
71994;DHT22;59861;50.268;8.648;2023-06-10T04:49:29;20.40;67.50
71994;DHT22;59861;50.268;8.648;2023-06-10T04:51:57;20.40;67.40
71994;DHT22;59861;50.268;8.648;2023-06-10T04:54:25;20.40;67.50
71994;DHT22;59861;50.268;8.648;2023-06-10T04:56:52;20.40;67.50
71994;DHT22;59861;50.268;8.648;2023-06-10T04:59:20;20.40;67.50
71994;DHT22;59861;50.268;8.648;2023-06-10T05:01:47;20.40;67.50
71994;DHT22;59861;50.268;8.648;2023-06-10T05:04:13;20.40;67.50
71994;DHT22;59861;50.268;8.648;2023-06-10T05:06:40;20.40;67.40
71994;DHT22;59861;50.268;8.648;2023-06-10T05:09:07;20.40;67.50
71994;DHT22;59861;50.268;8.648;2023-06-10T05:11:34;20.40;67.50
71994;DHT22;59861;50.268;8.648;2023-06-10T05:14:00;20.40;67.40
71994;DHT22;59861;50.268;8.648;2023-06-10T05:16:27;20.40;67.50
71994;DHT22;59861;50.268;8.648;2023-06-10T05:18:54;20.40;67.40
71994;DHT22;59861;50.268;8.648;2023-06-10T05:21:21;20.40;67.50
71994;DHT22;59861;50.268;8.648;2023-06-10T05:23:48;20.40;67.50
71994;DHT22;59861;50.268;8.648;2023-06-10T05:26:15;20.40;67.40
71994;DHT22;59861;50.268;8.648;2023-06-10T05:28:42;20.40;67.40
71994;DHT22;59861;50.268;8.648;2023-06-10T05:31:09;20.40;67.40
71994;DHT22;59861;50.268;8.648;2023-06-10T05:33:36;20.40;67.40
71994;DHT22;59861;50.268;8.648;2023-06-10T05:36:03;20.40;67.30
71994;DHT22;59861;50.268;8.648;2023-06-10T05:38:30;20.40;67.50
71994;DHT22;59861;50.268;8.648;2023-06-10T05:40:56;20.40;67.30
71994;DHT22;59861;50.268;8.648;2023-06-10T05:43:24;20.40;67.30
71994;DHT22;59861;50.268;8.648;2023-06-10T05:45:51;20.40;67.30
71994;DHT22;59861;50.268;8.648;2023-06-10T05:48:18;20.40;67.40
71994;DHT22;59861;50.268;8.648;2023-06-10T05:50:45;20.40;67.40
71994;DHT22;59861;50.268;8.648;2023-06-10T05:53:14;20.40;67.40
71994;DHT22;59861;50.268;8.648;2023-06-10T05:55:42;20.40;67.30
71994;DHT22;59861;50.268;8.648;2023-06-10T05:58:09;20.40;67.40
71994;DHT22;59861;50.268;8.648;2023-06-10T06:00:36;20.40;67.30
71994;DHT22;59861;50.268;8.648;2023-06-10T06:03:02;20.40;67.20
71994;DHT22;59861;50.268;8.648;2023-06-10T06:05:29;20.40;67.20
71994;DHT22;59861;50.268;8.648;2023-06-10T06:07:58;20.40;67.20
71994;DHT22;59861;50.268;8.648;2023-06-10T06:10:24;20.40;67.20
71994;DHT22;59861;50.268;8.648;2023-06-10T06:12:51;20.40;67.30
71994;DHT22;59861;50.268;8.648;2023-06-10T06:15:18;20.40;67.30
71994;DHT22;59861;50.268;8.648;2023-06-10T06:17:46;20.40;67.20
71994;DHT22;59861;50.268;8.648;2023-06-10T06:20:13;20.40;67.30
71994;DHT22;59861;50.268;8.648;2023-06-10T06:22:40;20.40;67.20
71994;DHT22;59861;50.268;8.648;2023-06-10T06:25:07;20.40;67.20
71994;DHT22;59861;50.268;8.648;2023-06-10T06:27:34;20.50;67.30
71994;DHT22;59861;50.268;8.648;2023-06-10T06:30:01;20.40;67.50
71994;DHT22;59861;50.268;8.648;2023-06-10T06:32:28;20.40;67.50
71994;DHT22;59861;50.268;8.648;2023-06-10T06:34:55;20.40;67.40
71994;DHT22;59861;50.268;8.648;2023-06-10T06:37:22;20.50;67.60
71994;DHT22;59861;50.268;8.648;2023-06-10T06:39:51;20.50;67.80
71994;DHT22;59861;50.268;8.648;2023-06-10T06:42:18;20.50;68.10
71994;DHT22;59861;50.268;8.648;2023-06-10T06:44:46;20.50;68.30
71994;DHT22;59861;50.268;8.648;2023-06-10T06:47:13;20.50;68.50
71994;DHT22;59861;50.268;8.648;2023-06-10T06:49:40;20.50;68.50
71994;DHT22;59861;50.268;8.648;2023-06-10T06:52:07;20.60;68.70
71994;DHT22;59861;50.268;8.648;2023-06-10T06:54:33;20.60;68.80
71994;DHT22;59861;50.268;8.648;2023-06-10T06:57:00;20.60;69.10
71994;DHT22;59861;50.268;8.648;2023-06-10T06:59:28;20.60;69.10
71994;DHT22;59861;50.268;8.648;2023-06-10T07:01:54;20.50;69.20
71994;DHT22;59861;50.268;8.648;2023-06-10T07:04:21;20.60;69.30
71994;DHT22;59861;50.268;8.648;2023-06-10T07:06:48;20.50;69.40
71994;DHT22;59861;50.268;8.648;2023-06-10T07:09:15;20.60;69.40
71994;DHT22;59861;50.268;8.648;2023-06-10T07:11:42;20.60;69.50
71994;DHT22;59861;50.268;8.648;2023-06-10T07:14:09;20.60;70.00
71994;DHT22;59861;50.268;8.648;2023-06-10T07:16:35;20.60;69.30
71994;DHT22;59861;50.268;8.648;2023-06-10T07:19:02;20.60;69.30
71994;DHT22;59861;50.268;8.648;2023-06-10T07:21:29;20.60;69.70
71994;DHT22;59861;50.268;8.648;2023-06-10T07:23:58;20.70;69.50
71994;DHT22;59861;50.268;8.648;2023-06-10T07:26:24;20.70;68.80
71994;DHT22;59861;50.268;8.648;2023-06-10T07:28:52;20.70;68.60
71994;DHT22;59861;50.268;8.648;2023-06-10T07:31:19;20.60;68.80
71994;DHT22;59861;50.268;8.648;2023-06-10T07:33:46;20.60;69.10
71994;DHT22;59861;50.268;8.648;2023-06-10T07:36:13;20.60;69.10
71994;DHT22;59861;50.268;8.648;2023-06-10T07:38:40;20.60;69.20
71994;DHT22;59861;50.268;8.648;2023-06-10T07:41:08;20.50;69.20
71994;DHT22;59861;50.268;8.648;2023-06-10T07:43:36;20.50;69.20
71994;DHT22;59861;50.268;8.648;2023-06-10T07:46:04;20.50;69.20
71994;DHT22;59861;50.268;8.648;2023-06-10T07:48:31;20.50;69.20
71994;DHT22;59861;50.268;8.648;2023-06-10T07:50:58;20.50;69.20
71994;DHT22;59861;50.268;8.648;2023-06-10T07:53:25;20.50;69.20
71994;DHT22;59861;50.268;8.648;2023-06-10T07:55:53;20.50;69.20
71994;DHT22;59861;50.268;8.648;2023-06-10T07:58:20;20.50;69.20
71994;DHT22;59861;50.268;8.648;2023-06-10T08:00:48;20.50;69.20
71994;DHT22;59861;50.268;8.648;2023-06-10T08:03:14;20.50;69.30
71994;DHT22;59861;50.268;8.648;2023-06-10T08:05:41;20.50;69.20
71994;DHT22;59861;50.268;8.648;2023-06-10T08:08:08;20.50;69.20
71994;DHT22;59861;50.268;8.648;2023-06-10T08:10:35;20.50;69.20
71994;DHT22;59861;50.268;8.648;2023-06-10T08:13:02;20.50;69.30
71994;DHT22;59861;50.268;8.648;2023-06-10T08:15:29;20.50;70.10
71994;DHT22;59861;50.268;8.648;2023-06-10T08:17:56;20.50;69.30
71994;DHT22;59861;50.268;8.648;2023-06-10T08:20:23;20.50;69.10
71994;DHT22;59861;50.268;8.648;2023-06-10T08:22:49;20.50;69.20
71994;DHT22;59861;50.268;8.648;2023-06-10T08:25:16;20.50;69.20
71994;DHT22;59861;50.268;8.648;2023-06-10T08:27:43;20.50;69.20
71994;DHT22;59861;50.268;8.648;2023-06-10T08:30:11;20.50;69.00
71994;DHT22;59861;50.268;8.648;2023-06-10T08:32:39;20.50;68.90
71994;DHT22;59861;50.268;8.648;2023-06-10T08:35:05;20.50;68.90
71994;DHT22;59861;50.268;8.648;2023-06-10T08:37:32;20.50;69.00
71994;DHT22;59861;50.268;8.648;2023-06-10T08:39:59;20.50;69.10
71994;DHT22;59861;50.268;8.648;2023-06-10T08:42:33;20.50;69.00
71994;DHT22;59861;50.268;8.648;2023-06-10T08:45:02;20.50;69.10
71994;DHT22;59861;50.268;8.648;2023-06-10T08:47:29;20.60;68.90
71994;DHT22;59861;50.268;8.648;2023-06-10T08:50:02;20.60;68.50
71994;DHT22;59861;50.268;8.648;2023-06-10T08:52:34;20.60;68.30
71994;DHT22;59861;50.268;8.648;2023-06-10T08:55:05;20.60;68.10
71994;DHT22;59861;50.268;8.648;2023-06-10T08:57:32;20.60;67.80
71994;DHT22;59861;50.268;8.648;2023-06-10T08:59:59;20.50;67.70
71994;DHT22;59861;50.268;8.648;2023-06-10T09:02:26;20.60;67.90
71994;DHT22;59861;50.268;8.648;2023-06-10T09:04:53;20.60;68.10
71994;DHT22;59861;50.268;8.648;2023-06-10T09:07:22;20.60;68.30
71994;DHT22;59861;50.268;8.648;2023-06-10T09:09:49;20.60;68.60
71994;DHT22;59861;50.268;8.648;2023-06-10T09:12:16;20.60;68.80
71994;DHT22;59861;50.268;8.648;2023-06-10T09:14:42;20.60;68.90
71994;DHT22;59861;50.268;8.648;2023-06-10T09:17:09;20.60;69.00
71994;DHT22;59861;50.268;8.648;2023-06-10T09:19:36;20.60;69.30
71994;DHT22;59861;50.268;8.648;2023-06-10T09:22:05;20.60;69.10
71994;DHT22;59861;50.268;8.648;2023-06-10T09:24:31;20.60;69.40
71994;DHT22;59861;50.268;8.648;2023-06-10T09:27:05;20.60;69.40
71994;DHT22;59861;50.268;8.648;2023-06-10T09:29:51;20.60;69.60
71994;DHT22;59861;50.268;8.648;2023-06-10T09:32:19;20.60;69.70
71994;DHT22;59861;50.268;8.648;2023-06-10T09:34:46;20.60;69.60
71994;DHT22;59861;50.268;8.648;2023-06-10T09:37:14;20.60;69.70
71994;DHT22;59861;50.268;8.648;2023-06-10T09:39:41;20.60;69.90
71994;DHT22;59861;50.268;8.648;2023-06-10T09:42:18;20.60;70.10
71994;DHT22;59861;50.268;8.648;2023-06-10T09:44:37;20.60;70.00
71994;DHT22;59861;50.268;8.648;2023-06-10T09:47:05;20.60;70.00
71994;DHT22;59861;50.268;8.648;2023-06-10T09:49:32;20.70;70.20
71994;DHT22;59861;50.268;8.648;2023-06-10T09:51:59;20.60;70.30
71994;DHT22;59861;50.268;8.648;2023-06-10T09:54:26;20.60;70.20
71994;DHT22;59861;50.268;8.648;2023-06-10T09:56:54;20.70;70.40
71994;DHT22;59861;50.268;8.648;2023-06-10T09:59:29;20.60;70.40
71994;DHT22;59861;50.268;8.648;2023-06-10T10:02:02;20.60;70.30
71994;DHT22;59861;50.268;8.648;2023-06-10T10:04:30;20.70;70.50
71994;DHT22;59861;50.268;8.648;2023-06-10T10:06:59;20.70;69.70
71994;DHT22;59861;50.268;8.648;2023-06-10T10:09:28;20.50;68.00
71994;DHT22;59861;50.268;8.648;2023-06-10T10:11:55;20.40;66.20
71994;DHT22;59861;50.268;8.648;2023-06-10T10:14:23;20.40;66.10
71994;DHT22;59861;50.268;8.648;2023-06-10T10:16:51;20.40;65.40
71994;DHT22;59861;50.268;8.648;2023-06-10T10:19:25;20.40;65.00
71994;DHT22;59861;50.268;8.648;2023-06-10T10:21:59;20.30;65.30
71994;DHT22;59861;50.268;8.648;2023-06-10T10:24:23;20.30;64.50
71994;DHT22;59861;50.268;8.648;2023-06-10T10:26:54;20.30;63.10
71994;DHT22;59861;50.268;8.648;2023-06-10T10:31:55;20.30;62.20
71994;DHT22;59861;50.268;8.648;2023-06-10T10:34:37;20.30;62.40
71994;DHT22;59861;50.268;8.648;2023-06-10T10:37:04;20.30;62.90
71994;DHT22;59861;50.268;8.648;2023-06-10T10:39:32;20.30;61.50
71994;DHT22;59861;50.268;8.648;2023-06-10T10:41:59;20.20;61.00
71994;DHT22;59861;50.268;8.648;2023-06-10T10:44:28;20.30;60.70
71994;DHT22;59861;50.268;8.648;2023-06-10T10:46:55;20.20;61.00
71994;DHT22;59861;50.268;8.648;2023-06-10T10:49:22;20.10;60.80
71994;DHT22;59861;50.268;8.648;2023-06-10T10:52:01;20.00;60.50
71994;DHT22;59861;50.268;8.648;2023-06-10T10:54:30;20.00;60.30
71994;DHT22;59861;50.268;8.648;2023-06-10T10:57:31;19.90;61.10
71994;DHT22;59861;50.268;8.648;2023-06-10T10:59:44;19.90;60.40
71994;DHT22;59861;50.268;8.648;2023-06-10T11:02:57;19.90;60.40
71994;DHT22;59861;50.268;8.648;2023-06-10T11:04:43;19.90;59.90
71994;DHT22;59861;50.268;8.648;2023-06-10T11:07:08;19.80;58.90
71994;DHT22;59861;50.268;8.648;2023-06-10T11:09:36;19.80;58.10
71994;DHT22;59861;50.268;8.648;2023-06-10T11:12:03;19.80;57.80
71994;DHT22;59861;50.268;8.648;2023-06-10T11:14:32;19.80;57.20
71994;DHT22;59861;50.268;8.648;2023-06-10T11:17:00;19.80;57.40
71994;DHT22;59861;50.268;8.648;2023-06-10T11:19:36;19.80;57.30
71994;DHT22;59861;50.268;8.648;2023-06-10T11:32:16;20.00;55.70
71994;DHT22;59861;50.268;8.648;2023-06-10T11:34:44;20.00;56.50
71994;DHT22;59861;50.268;8.648;2023-06-10T11:37:12;19.90;56.70
71994;DHT22;59861;50.268;8.648;2023-06-10T11:39:39;19.80;56.30
71994;DHT22;59861;50.268;8.648;2023-06-10T11:42:06;19.80;56.40
71994;DHT22;59861;50.268;8.648;2023-06-10T11:44:33;19.80;56.60
71994;DHT22;59861;50.268;8.648;2023-06-10T11:47:02;19.80;56.40
71994;DHT22;59861;50.268;8.648;2023-06-10T11:49:28;19.80;57.10
71994;DHT22;59861;50.268;8.648;2023-06-10T11:51:55;19.80;56.10
71994;DHT22;59861;50.268;8.648;2023-06-10T11:54:22;19.80;56.00
71994;DHT22;59861;50.268;8.648;2023-06-10T11:56:49;19.80;56.00
71994;DHT22;59861;50.268;8.648;2023-06-10T11:59:16;19.80;55.90
71994;DHT22;59861;50.268;8.648;2023-06-10T12:01:44;19.80;55.70
71994;DHT22;59861;50.268;8.648;2023-06-10T12:04:11;19.70;55.90
71994;DHT22;59861;50.268;8.648;2023-06-10T12:06:39;19.70;55.70
71994;DHT22;59861;50.268;8.648;2023-06-10T12:09:07;19.70;55.80
71994;DHT22;59861;50.268;8.648;2023-06-10T12:11:33;19.70;55.50
71994;DHT22;59861;50.268;8.648;2023-06-10T12:14:00;19.70;55.30
71994;DHT22;59861;50.268;8.648;2023-06-10T12:16:29;19.60;55.30
71994;DHT22;59861;50.268;8.648;2023-06-10T12:19:00;19.60;55.30
71994;DHT22;59861;50.268;8.648;2023-06-10T12:21:24;19.60;55.30
71994;DHT22;59861;50.268;8.648;2023-06-10T12:26:44;19.60;55.30
71994;DHT22;59861;50.268;8.648;2023-06-10T12:29:17;19.60;55.20
71994;DHT22;59861;50.268;8.648;2023-06-10T12:31:57;19.60;55.00
71994;DHT22;59861;50.268;8.648;2023-06-10T12:34:31;19.60;54.90
71994;DHT22;59861;50.268;8.648;2023-06-10T12:36:58;19.50;55.10
71994;DHT22;59861;50.268;8.648;2023-06-10T12:39:25;19.60;55.40
71994;DHT22;59861;50.268;8.648;2023-06-10T12:41:52;19.60;57.10
71994;DHT22;59861;50.268;8.648;2023-06-10T12:44:27;19.70;57.90
71994;DHT22;59861;50.268;8.648;2023-06-10T12:46:53;19.80;58.60
71994;DHT22;59861;50.268;8.648;2023-06-10T12:49:20;19.80;58.90
71994;DHT22;59861;50.268;8.648;2023-06-10T12:51:47;19.80;59.10
71994;DHT22;59861;50.268;8.648;2023-06-10T12:54:14;19.90;59.50
71994;DHT22;59861;50.268;8.648;2023-06-10T12:56:41;19.90;59.60
71994;DHT22;59861;50.268;8.648;2023-06-10T12:59:07;20.00;59.80
71994;DHT22;59861;50.268;8.648;2023-06-10T13:01:34;20.00;60.00
71994;DHT22;59861;50.268;8.648;2023-06-10T13:04:01;20.00;60.10
71994;DHT22;59861;50.268;8.648;2023-06-10T13:06:28;20.00;60.30
71994;DHT22;59861;50.268;8.648;2023-06-10T13:08:55;20.10;60.40
71994;DHT22;59861;50.268;8.648;2023-06-10T13:11:22;20.10;60.80
71994;DHT22;59861;50.268;8.648;2023-06-10T13:13:50;20.10;60.80
71994;DHT22;59861;50.268;8.648;2023-06-10T13:16:17;20.10;60.90
71994;DHT22;59861;50.268;8.648;2023-06-10T13:18:44;20.20;61.10
71994;DHT22;59861;50.268;8.648;2023-06-10T13:21:11;20.20;61.20
71994;DHT22;59861;50.268;8.648;2023-06-10T13:23:38;20.20;61.40
71994;DHT22;59861;50.268;8.648;2023-06-10T13:26:05;20.20;61.20
71994;DHT22;59861;50.268;8.648;2023-06-10T13:28:32;20.20;61.60
71994;DHT22;59861;50.268;8.648;2023-06-10T13:30:59;20.20;61.80
71994;DHT22;59861;50.268;8.648;2023-06-10T13:33:25;20.80;58.60
71994;DHT22;59861;50.268;8.648;2023-06-10T13:35:52;21.20;57.40
71994;DHT22;59861;50.268;8.648;2023-06-10T13:38:19;20.90;57.70
71994;DHT22;59861;50.268;8.648;2023-06-10T13:40:46;20.70;58.70
71994;DHT22;59861;50.268;8.648;2023-06-10T13:43:13;20.60;59.50
71994;DHT22;59861;50.268;8.648;2023-06-10T13:45:40;20.50;60.00
71994;DHT22;59861;50.268;8.648;2023-06-10T13:48:07;20.40;60.50
71994;DHT22;59861;50.268;8.648;2023-06-10T13:50:34;20.40;61.30
71994;DHT22;59861;50.268;8.648;2023-06-10T13:53:01;20.40;61.70
71994;DHT22;59861;50.268;8.648;2023-06-10T13:55:27;20.40;62.10
71994;DHT22;59861;50.268;8.648;2023-06-10T13:57:54;20.40;62.30
71994;DHT22;59861;50.268;8.648;2023-06-10T14:00:21;20.40;62.50
71994;DHT22;59861;50.268;8.648;2023-06-10T14:02:48;20.40;62.70
71994;DHT22;59861;50.268;8.648;2023-06-10T14:05:15;20.40;63.00
71994;DHT22;59861;50.268;8.648;2023-06-10T14:07:41;20.40;63.20
71994;DHT22;59861;50.268;8.648;2023-06-10T14:10:08;20.40;63.50
71994;DHT22;59861;50.268;8.648;2023-06-10T14:12:36;20.40;63.30
71994;DHT22;59861;50.268;8.648;2023-06-10T14:15:03;20.40;63.40
71994;DHT22;59861;50.268;8.648;2023-06-10T14:17:30;20.40;63.60
71994;DHT22;59861;50.268;8.648;2023-06-10T14:19:57;20.40;63.70
71994;DHT22;59861;50.268;8.648;2023-06-10T14:22:23;20.40;63.80
71994;DHT22;59861;50.268;8.648;2023-06-10T14:24:50;20.50;64.10
71994;DHT22;59861;50.268;8.648;2023-06-10T14:27:18;20.50;64.60
71994;DHT22;59861;50.268;8.648;2023-06-10T14:29:45;20.50;64.70
71994;DHT22;59861;50.268;8.648;2023-06-10T14:32:12;20.70;64.40
71994;DHT22;59861;50.268;8.648;2023-06-10T14:34:39;20.60;63.80
71994;DHT22;59861;50.268;8.648;2023-06-10T14:37:07;20.50;63.20
71994;DHT22;59861;50.268;8.648;2023-06-10T14:39:34;20.50;64.60
71994;DHT22;59861;50.268;8.648;2023-06-10T14:42:02;20.60;64.80
71994;DHT22;59861;50.268;8.648;2023-06-10T14:44:28;20.50;65.00
71994;DHT22;59861;50.268;8.648;2023-06-10T14:46:55;20.50;65.00
71994;DHT22;59861;50.268;8.648;2023-06-10T14:49:22;20.50;64.90
71994;DHT22;59861;50.268;8.648;2023-06-10T14:51:49;20.60;65.70
71994;DHT22;59861;50.268;8.648;2023-06-10T14:54:16;20.60;65.30
71994;DHT22;59861;50.268;8.648;2023-06-10T14:56:43;20.60;65.20
71994;DHT22;59861;50.268;8.648;2023-06-10T14:59:09;20.60;65.20
71994;DHT22;59861;50.268;8.648;2023-06-10T15:01:36;20.60;64.40
71994;DHT22;59861;50.268;8.648;2023-06-10T15:04:03;20.60;65.20
71994;DHT22;59861;50.268;8.648;2023-06-10T15:06:30;20.60;65.10
71994;DHT22;59861;50.268;8.648;2023-06-10T15:08:57;20.60;65.30
71994;DHT22;59861;50.268;8.648;2023-06-10T15:11:24;20.70;64.90
71994;DHT22;59861;50.268;8.648;2023-06-10T15:13:51;20.70;64.50
71994;DHT22;59861;50.268;8.648;2023-06-10T15:16:18;20.70;65.00
71994;DHT22;59861;50.268;8.648;2023-06-10T15:18:45;20.90;60.40
71994;DHT22;59861;50.268;8.648;2023-06-10T15:21:12;21.20;58.20
71994;DHT22;59861;50.268;8.648;2023-06-10T15:23:39;21.20;59.00
71994;DHT22;59861;50.268;8.648;2023-06-10T15:26:06;21.00;59.80
71994;DHT22;59861;50.268;8.648;2023-06-10T15:28:35;21.00;59.90
71994;DHT22;59861;50.268;8.648;2023-06-10T15:31:01;21.10;59.30
71994;DHT22;59861;50.268;8.648;2023-06-10T15:33:28;21.00;59.00
71994;DHT22;59861;50.268;8.648;2023-06-10T15:35:56;21.00;58.40
71994;DHT22;59861;50.268;8.648;2023-06-10T15:38:23;21.00;57.80
71994;DHT22;59861;50.268;8.648;2023-06-10T15:40:49;21.20;57.80
71994;DHT22;59861;50.268;8.648;2023-06-10T15:43:16;21.10;58.10
71994;DHT22;59861;50.268;8.648;2023-06-10T15:45:43;21.30;57.30
71994;DHT22;59861;50.268;8.648;2023-06-10T15:48:10;21.40;56.40